sensor_id;sensor_type;location;lat;lon;timestamp;P1;durP1;ratioP1;P2;durP2;ratioP2
10432;SDS011;5263;48.680;9.004;2024-02-26T00:00:28;6.43;;;1.60;;
10432;SDS011;5263;48.680;9.004;2024-02-26T00:02:55;3.50;;;1.30;;
10432;SDS011;5263;48.680;9.004;2024-02-26T00:05:20;3.10;;;1.50;;
10432;SDS011;5263;48.680;9.004;2024-02-26T00:07:46;1.97;;;1.23;;
10432;SDS011;5263;48.680;9.004;2024-02-26T00:10:12;3.80;;;1.60;;
10432;SDS011;5263;48.680;9.004;2024-02-26T00:12:38;2.33;;;1.50;;
10432;SDS011;5263;48.680;9.004;2024-02-26T00:15:05;2.43;;;1.20;;
10432;SDS011;5263;48.680;9.004;2024-02-26T00:17:31;3.90;;;1.40;;
10432;SDS011;5263;48.680;9.004;2024-02-26T00:19:57;2.13;;;1.10;;
10432;SDS011;5263;48.680;9.004;2024-02-26T00:22:22;2.00;;;1.03;;
10432;SDS011;5263;48.680;9.004;2024-02-26T00:24:48;1.87;;;1.10;;
10432;SDS011;5263;48.680;9.004;2024-02-26T00:27:13;1.67;;;1.00;;
10432;SDS011;5263;48.680;9.004;2024-02-26T00:29:39;1.87;;;1.27;;
10432;SDS011;5263;48.680;9.004;2024-02-26T00:32:05;0.70;;;0.60;;
10432;SDS011;5263;48.680;9.004;2024-02-26T00:34:31;0.73;;;0.70;;
10432;SDS011;5263;48.680;9.004;2024-02-26T00:36:56;1.07;;;0.70;;
10432;SDS011;5263;48.680;9.004;2024-02-26T00:39:22;0.50;;;0.40;;
10432;SDS011;5263;48.680;9.004;2024-02-26T00:41:47;1.33;;;0.50;;
10432;SDS011;5263;48.680;9.004;2024-02-26T00:44:13;1.77;;;0.70;;
10432;SDS011;5263;48.680;9.004;2024-02-26T00:46:38;2.37;;;0.90;;
10432;SDS011;5263;48.680;9.004;2024-02-26T00:49:04;3.63;;;1.00;;
10432;SDS011;5263;48.680;9.004;2024-02-26T00:51:30;6.80;;;0.70;;
10432;SDS011;5263;48.680;9.004;2024-02-26T00:53:56;0.90;;;0.70;;
10432;SDS011;5263;48.680;9.004;2024-02-26T00:56:21;2.00;;;0.80;;
10432;SDS011;5263;48.680;9.004;2024-02-26T00:58:47;2.23;;;0.67;;
10432;SDS011;5263;48.680;9.004;2024-02-26T01:01:13;0.90;;;0.60;;
10432;SDS011;5263;48.680;9.004;2024-02-26T01:03:38;0.50;;;0.50;;
10432;SDS011;5263;48.680;9.004;2024-02-26T01:06:04;0.50;;;0.50;;
10432;SDS011;5263;48.680;9.004;2024-02-26T01:08:29;0.60;;;0.50;;
10432;SDS011;5263;48.680;9.004;2024-02-26T01:10:56;0.43;;;0.43;;
10432;SDS011;5263;48.680;9.004;2024-02-26T01:13:22;0.60;;;0.53;;
10432;SDS011;5263;48.680;9.004;2024-02-26T01:15:47;1.10;;;0.43;;
10432;SDS011;5263;48.680;9.004;2024-02-26T01:18:13;1.67;;;0.40;;
10432;SDS011;5263;48.680;9.004;2024-02-26T01:20:38;0.33;;;0.30;;
10432;SDS011;5263;48.680;9.004;2024-02-26T01:23:04;0.50;;;0.40;;
10432;SDS011;5263;48.680;9.004;2024-02-26T01:25:30;0.30;;;0.30;;
10432;SDS011;5263;48.680;9.004;2024-02-26T01:27:55;0.60;;;0.30;;
10432;SDS011;5263;48.680;9.004;2024-02-26T01:30:21;0.33;;;0.33;;
10432;SDS011;5263;48.680;9.004;2024-02-26T01:32:46;0.63;;;0.20;;
10432;SDS011;5263;48.680;9.004;2024-02-26T01:35:12;0.27;;;0.27;;
10432;SDS011;5263;48.680;9.004;2024-02-26T01:37:38;1.67;;;0.40;;
10432;SDS011;5263;48.680;9.004;2024-02-26T01:40:05;0.20;;;0.20;;
10432;SDS011;5263;48.680;9.004;2024-02-26T01:42:32;0.27;;;0.27;;
10432;SDS011;5263;48.680;9.004;2024-02-26T01:44:58;0.60;;;0.30;;
10432;SDS011;5263;48.680;9.004;2024-02-26T01:47:24;0.43;;;0.20;;
10432;SDS011;5263;48.680;9.004;2024-02-26T01:49:51;0.27;;;0.27;;
10432;SDS011;5263;48.680;9.004;2024-02-26T01:52:17;0.87;;;0.37;;
10432;SDS011;5263;48.680;9.004;2024-02-26T01:54:43;0.40;;;0.30;;
10432;SDS011;5263;48.680;9.004;2024-02-26T01:57:11;0.53;;;0.33;;
10432;SDS011;5263;48.680;9.004;2024-02-26T01:59:37;0.20;;;0.20;;
10432;SDS011;5263;48.680;9.004;2024-02-26T02:02:05;1.40;;;0.30;;
10432;SDS011;5263;48.680;9.004;2024-02-26T02:04:33;0.30;;;0.30;;
10432;SDS011;5263;48.680;9.004;2024-02-26T02:07:00;0.20;;;0.20;;
10432;SDS011;5263;48.680;9.004;2024-02-26T02:09:29;0.30;;;0.20;;
10432;SDS011;5263;48.680;9.004;2024-02-26T02:11:55;0.73;;;0.20;;
10432;SDS011;5263;48.680;9.004;2024-02-26T02:14:21;0.20;;;0.20;;
10432;SDS011;5263;48.680;9.004;2024-02-26T02:16:47;0.97;;;0.20;;
10432;SDS011;5263;48.680;9.004;2024-02-26T02:19:13;0.20;;;0.20;;
10432;SDS011;5263;48.680;9.004;2024-02-26T02:21:39;0.30;;;0.20;;
10432;SDS011;5263;48.680;9.004;2024-02-26T02:24:04;0.30;;;0.30;;
10432;SDS011;5263;48.680;9.004;2024-02-26T02:26:30;0.20;;;0.10;;
10432;SDS011;5263;48.680;9.004;2024-02-26T02:28:55;0.10;;;0.10;;
10432;SDS011;5263;48.680;9.004;2024-02-26T02:31:22;0.57;;;0.10;;
10432;SDS011;5263;48.680;9.004;2024-02-26T02:33:48;0.10;;;0.10;;
10432;SDS011;5263;48.680;9.004;2024-02-26T02:36:13;0.20;;;0.10;;
10432;SDS011;5263;48.680;9.004;2024-02-26T02:38:48;0.10;;;0.10;;
10432;SDS011;5263;48.680;9.004;2024-02-26T02:41:17;0.10;;;0.10;;
10432;SDS011;5263;48.680;9.004;2024-02-26T02:43:43;0.20;;;0.10;;
10432;SDS011;5263;48.680;9.004;2024-02-26T02:46:09;0.57;;;0.03;;
10432;SDS011;5263;48.680;9.004;2024-02-26T02:48:36;1.63;;;0.20;;
10432;SDS011;5263;48.680;9.004;2024-02-26T02:51:02;0.10;;;0.10;;
10432;SDS011;5263;48.680;9.004;2024-02-26T02:53:28;0.20;;;0.20;;
10432;SDS011;5263;48.680;9.004;2024-02-26T02:55:53;0.10;;;0.10;;
10432;SDS011;5263;48.680;9.004;2024-02-26T02:58:19;0.10;;;0.10;;
10432;SDS011;5263;48.680;9.004;2024-02-26T03:00:45;0.10;;;0.10;;
10432;SDS011;5263;48.680;9.004;2024-02-26T03:03:10;0.10;;;0.10;;
10432;SDS011;5263;48.680;9.004;2024-02-26T03:05:36;0.13;;;0.13;;
10432;SDS011;5263;48.680;9.004;2024-02-26T03:08:01;0.10;;;0.10;;
10432;SDS011;5263;48.680;9.004;2024-02-26T03:10:27;0.20;;;0.10;;
10432;SDS011;5263;48.680;9.004;2024-02-26T03:12:53;0.10;;;0.10;;
10432;SDS011;5263;48.680;9.004;2024-02-26T03:15:18;0.10;;;0.10;;
10432;SDS011;5263;48.680;9.004;2024-02-26T03:17:44;0.10;;;0.10;;
10432;SDS011;5263;48.680;9.004;2024-02-26T03:20:10;0.10;;;0.10;;
10432;SDS011;5263;48.680;9.004;2024-02-26T03:22:35;0.50;;;0.03;;
10432;SDS011;5263;48.680;9.004;2024-02-26T03:25:03;0.00;;;0.00;;
10432;SDS011;5263;48.680;9.004;2024-02-26T03:27:29;0.20;;;0.10;;
10432;SDS011;5263;48.680;9.004;2024-02-26T03:29:54;0.67;;;0.20;;
10432;SDS011;5263;48.680;9.004;2024-02-26T03:32:20;0.20;;;0.10;;
10432;SDS011;5263;48.680;9.004;2024-02-26T03:34:45;0.20;;;0.20;;
10432;SDS011;5263;48.680;9.004;2024-02-26T03:37:11;0.10;;;0.10;;
10432;SDS011;5263;48.680;9.004;2024-02-26T03:39:37;0.10;;;0.10;;
10432;SDS011;5263;48.680;9.004;2024-02-26T03:42:02;0.10;;;0.10;;
10432;SDS011;5263;48.680;9.004;2024-02-26T03:44:28;0.20;;;0.17;;
10432;SDS011;5263;48.680;9.004;2024-02-26T03:46:54;0.10;;;0.10;;
10432;SDS011;5263;48.680;9.004;2024-02-26T03:49:20;0.10;;;0.10;;
10432;SDS011;5263;48.680;9.004;2024-02-26T03:51:47;0.50;;;0.20;;
10432;SDS011;5263;48.680;9.004;2024-02-26T03:54:13;0.10;;;0.10;;
10432;SDS011;5263;48.680;9.004;2024-02-26T03:56:39;2.20;;;0.20;;
10432;SDS011;5263;48.680;9.004;2024-02-26T03:59:04;0.10;;;0.10;;
10432;SDS011;5263;48.680;9.004;2024-02-26T04:01:30;0.10;;;0.10;;
10432;SDS011;5263;48.680;9.004;2024-02-26T04:03:55;0.20;;;0.20;;
10432;SDS011;5263;48.680;9.004;2024-02-26T04:06:21;0.20;;;0.20;;
10432;SDS011;5263;48.680;9.004;2024-02-26T04:08:47;0.50;;;0.20;;
10432;SDS011;5263;48.680;9.004;2024-02-26T04:11:13;0.90;;;0.20;;
10432;SDS011;5263;48.680;9.004;2024-02-26T04:13:42;0.50;;;0.30;;
10432;SDS011;5263;48.680;9.004;2024-02-26T04:16:14;0.20;;;0.20;;
10432;SDS011;5263;48.680;9.004;2024-02-26T04:18:41;0.40;;;0.30;;
10432;SDS011;5263;48.680;9.004;2024-02-26T04:21:06;0.23;;;0.23;;
10432;SDS011;5263;48.680;9.004;2024-02-26T04:23:32;0.43;;;0.20;;
10432;SDS011;5263;48.680;9.004;2024-02-26T04:25:58;0.20;;;0.20;;
10432;SDS011;5263;48.680;9.004;2024-02-26T04:28:23;1.33;;;0.20;;
10432;SDS011;5263;48.680;9.004;2024-02-26T04:30:51;0.37;;;0.13;;
10432;SDS011;5263;48.680;9.004;2024-02-26T04:33:16;0.10;;;0.10;;
10432;SDS011;5263;48.680;9.004;2024-02-26T04:35:42;0.20;;;0.20;;
10432;SDS011;5263;48.680;9.004;2024-02-26T04:38:08;1.70;;;0.20;;
10432;SDS011;5263;48.680;9.004;2024-02-26T04:40:33;0.10;;;0.10;;
10432;SDS011;5263;48.680;9.004;2024-02-26T04:42:59;0.53;;;0.20;;
10432;SDS011;5263;48.680;9.004;2024-02-26T04:45:24;0.20;;;0.20;;
10432;SDS011;5263;48.680;9.004;2024-02-26T04:47:50;0.10;;;0.10;;
10432;SDS011;5263;48.680;9.004;2024-02-26T04:50:15;0.17;;;0.10;;
10432;SDS011;5263;48.680;9.004;2024-02-26T04:52:41;0.40;;;0.10;;
10432;SDS011;5263;48.680;9.004;2024-02-26T04:55:07;0.17;;;0.17;;
10432;SDS011;5263;48.680;9.004;2024-02-26T04:57:33;0.40;;;0.20;;
10432;SDS011;5263;48.680;9.004;2024-02-26T04:59:59;0.20;;;0.20;;
10432;SDS011;5263;48.680;9.004;2024-02-26T05:02:24;0.30;;;0.30;;
10432;SDS011;5263;48.680;9.004;2024-02-26T05:04:50;0.20;;;0.20;;
10432;SDS011;5263;48.680;9.004;2024-02-26T05:07:15;0.83;;;0.30;;
10432;SDS011;5263;48.680;9.004;2024-02-26T05:09:42;0.57;;;0.23;;
10432;SDS011;5263;48.680;9.004;2024-02-26T05:12:08;0.27;;;0.20;;
10432;SDS011;5263;48.680;9.004;2024-02-26T05:14:34;0.17;;;0.17;;
10432;SDS011;5263;48.680;9.004;2024-02-26T05:17:00;1.70;;;0.30;;
10432;SDS011;5263;48.680;9.004;2024-02-26T05:19:25;0.20;;;0.20;;
10432;SDS011;5263;48.680;9.004;2024-02-26T05:21:51;0.20;;;0.20;;
10432;SDS011;5263;48.680;9.004;2024-02-26T05:24:16;0.37;;;0.30;;
10432;SDS011;5263;48.680;9.004;2024-02-26T05:26:43;0.40;;;0.37;;
10432;SDS011;5263;48.680;9.004;2024-02-26T05:29:09;0.40;;;0.40;;
10432;SDS011;5263;48.680;9.004;2024-02-26T05:31:34;0.87;;;0.37;;
10432;SDS011;5263;48.680;9.004;2024-02-26T05:34:00;0.53;;;0.40;;
10432;SDS011;5263;48.680;9.004;2024-02-26T05:36:25;0.20;;;0.20;;
10432;SDS011;5263;48.680;9.004;2024-02-26T05:38:53;0.30;;;0.30;;
10432;SDS011;5263;48.680;9.004;2024-02-26T05:41:19;1.23;;;0.40;;
10432;SDS011;5263;48.680;9.004;2024-02-26T05:43:48;0.30;;;0.30;;
10432;SDS011;5263;48.680;9.004;2024-02-26T05:46:18;0.40;;;0.40;;
10432;SDS011;5263;48.680;9.004;2024-02-26T05:48:46;0.43;;;0.27;;
10432;SDS011;5263;48.680;9.004;2024-02-26T05:51:17;0.33;;;0.30;;
10432;SDS011;5263;48.680;9.004;2024-02-26T05:53:42;0.30;;;0.30;;
10432;SDS011;5263;48.680;9.004;2024-02-26T05:56:08;3.50;;;0.40;;
10432;SDS011;5263;48.680;9.004;2024-02-26T05:58:33;0.87;;;0.50;;
10432;SDS011;5263;48.680;9.004;2024-02-26T06:00:59;0.60;;;0.30;;
10432;SDS011;5263;48.680;9.004;2024-02-26T06:03:25;0.50;;;0.40;;
10432;SDS011;5263;48.680;9.004;2024-02-26T06:05:51;1.40;;;0.50;;
10432;SDS011;5263;48.680;9.004;2024-02-26T06:08:17;0.40;;;0.40;;
10432;SDS011;5263;48.680;9.004;2024-02-26T06:10:42;2.27;;;0.87;;
10432;SDS011;5263;48.680;9.004;2024-02-26T06:13:08;1.00;;;0.60;;
10432;SDS011;5263;48.680;9.004;2024-02-26T06:15:34;1.20;;;0.60;;
10432;SDS011;5263;48.680;9.004;2024-02-26T06:17:59;0.83;;;0.70;;
10432;SDS011;5263;48.680;9.004;2024-02-26T06:20:25;1.10;;;1.00;;
10432;SDS011;5263;48.680;9.004;2024-02-26T06:22:51;0.60;;;0.60;;
10432;SDS011;5263;48.680;9.004;2024-02-26T06:25:16;1.27;;;0.70;;
10432;SDS011;5263;48.680;9.004;2024-02-26T06:27:42;1.07;;;0.40;;
10432;SDS011;5263;48.680;9.004;2024-02-26T06:30:07;0.47;;;0.47;;
10432;SDS011;5263;48.680;9.004;2024-02-26T06:32:36;2.00;;;0.50;;
10432;SDS011;5263;48.680;9.004;2024-02-26T06:35:02;0.93;;;0.70;;
10432;SDS011;5263;48.680;9.004;2024-02-26T06:37:31;1.13;;;0.70;;
10432;SDS011;5263;48.680;9.004;2024-02-26T06:39:58;0.93;;;0.60;;
10432;SDS011;5263;48.680;9.004;2024-02-26T06:42:24;1.00;;;0.67;;
10432;SDS011;5263;48.680;9.004;2024-02-26T06:44:50;0.87;;;0.80;;
10432;SDS011;5263;48.680;9.004;2024-02-26T06:47:15;1.03;;;0.77;;
10432;SDS011;5263;48.680;9.004;2024-02-26T06:49:41;0.50;;;0.50;;
10432;SDS011;5263;48.680;9.004;2024-02-26T06:52:06;1.07;;;0.70;;
10432;SDS011;5263;48.680;9.004;2024-02-26T06:54:32;1.17;;;0.70;;
10432;SDS011;5263;48.680;9.004;2024-02-26T06:56:57;1.13;;;0.50;;
10432;SDS011;5263;48.680;9.004;2024-02-26T06:59:23;0.40;;;0.40;;
10432;SDS011;5263;48.680;9.004;2024-02-26T07:01:49;2.87;;;0.50;;
10432;SDS011;5263;48.680;9.004;2024-02-26T07:04:14;0.57;;;0.50;;
10432;SDS011;5263;48.680;9.004;2024-02-26T07:06:40;0.70;;;0.30;;
10432;SDS011;5263;48.680;9.004;2024-02-26T07:09:06;0.30;;;0.30;;
10432;SDS011;5263;48.680;9.004;2024-02-26T07:11:32;0.50;;;0.30;;
10432;SDS011;5263;48.680;9.004;2024-02-26T07:13:57;0.30;;;0.30;;
10432;SDS011;5263;48.680;9.004;2024-02-26T07:16:23;0.30;;;0.23;;
10432;SDS011;5263;48.680;9.004;2024-02-26T07:18:49;0.17;;;0.17;;
10432;SDS011;5263;48.680;9.004;2024-02-26T07:21:14;0.40;;;0.27;;
10432;SDS011;5263;48.680;9.004;2024-02-26T07:23:40;0.33;;;0.30;;
10432;SDS011;5263;48.680;9.004;2024-02-26T07:26:06;0.33;;;0.30;;
10432;SDS011;5263;48.680;9.004;2024-02-26T07:28:33;0.40;;;0.30;;
10432;SDS011;5263;48.680;9.004;2024-02-26T07:30:58;0.30;;;0.30;;
10432;SDS011;5263;48.680;9.004;2024-02-26T07:33:24;2.00;;;0.30;;
10432;SDS011;5263;48.680;9.004;2024-02-26T07:35:50;0.33;;;0.30;;
10432;SDS011;5263;48.680;9.004;2024-02-26T07:38:15;0.30;;;0.30;;
10432;SDS011;5263;48.680;9.004;2024-02-26T07:40:41;0.23;;;0.23;;
10432;SDS011;5263;48.680;9.004;2024-02-26T07:43:06;0.30;;;0.30;;
10432;SDS011;5263;48.680;9.004;2024-02-26T07:45:32;0.40;;;0.30;;
10432;SDS011;5263;48.680;9.004;2024-02-26T07:47:58;0.33;;;0.30;;
10432;SDS011;5263;48.680;9.004;2024-02-26T07:50:23;1.30;;;0.50;;
10432;SDS011;5263;48.680;9.004;2024-02-26T07:52:49;0.70;;;0.47;;
10432;SDS011;5263;48.680;9.004;2024-02-26T07:55:16;0.20;;;0.20;;
10432;SDS011;5263;48.680;9.004;2024-02-26T07:57:42;0.33;;;0.27;;
10432;SDS011;5263;48.680;9.004;2024-02-26T08:00:08;1.80;;;0.30;;
10432;SDS011;5263;48.680;9.004;2024-02-26T08:02:35;2.93;;;0.30;;
10432;SDS011;5263;48.680;9.004;2024-02-26T08:05:01;2.00;;;0.30;;
10432;SDS011;5263;48.680;9.004;2024-02-26T08:07:27;1.33;;;0.40;;
10432;SDS011;5263;48.680;9.004;2024-02-26T08:09:53;0.40;;;0.40;;
10432;SDS011;5263;48.680;9.004;2024-02-26T08:12:19;1.90;;;0.47;;
10432;SDS011;5263;48.680;9.004;2024-02-26T08:14:44;2.10;;;0.50;;
10432;SDS011;5263;48.680;9.004;2024-02-26T08:17:10;1.30;;;0.60;;
10432;SDS011;5263;48.680;9.004;2024-02-26T08:19:35;2.30;;;0.50;;
10432;SDS011;5263;48.680;9.004;2024-02-26T08:22:01;2.13;;;0.90;;
10432;SDS011;5263;48.680;9.004;2024-02-26T08:24:27;1.57;;;0.73;;
10432;SDS011;5263;48.680;9.004;2024-02-26T08:26:53;0.60;;;0.60;;
10432;SDS011;5263;48.680;9.004;2024-02-26T08:29:19;0.60;;;0.50;;
10432;SDS011;5263;48.680;9.004;2024-02-26T08:31:44;0.80;;;0.57;;
10432;SDS011;5263;48.680;9.004;2024-02-26T08:34:10;0.80;;;0.60;;
10432;SDS011;5263;48.680;9.004;2024-02-26T08:36:35;2.53;;;0.60;;
10432;SDS011;5263;48.680;9.004;2024-02-26T08:39:01;0.87;;;0.30;;
10432;SDS011;5263;48.680;9.004;2024-02-26T08:41:27;0.50;;;0.50;;
10432;SDS011;5263;48.680;9.004;2024-02-26T08:43:52;0.93;;;0.53;;
10432;SDS011;5263;48.680;9.004;2024-02-26T08:46:18;2.37;;;0.50;;
10432;SDS011;5263;48.680;9.004;2024-02-26T08:48:43;0.73;;;0.50;;
10432;SDS011;5263;48.680;9.004;2024-02-26T08:51:09;0.60;;;0.40;;
10432;SDS011;5263;48.680;9.004;2024-02-26T08:53:38;0.47;;;0.47;;
10432;SDS011;5263;48.680;9.004;2024-02-26T08:56:04;1.37;;;0.53;;
10432;SDS011;5263;48.680;9.004;2024-02-26T08:58:30;0.40;;;0.40;;
10432;SDS011;5263;48.680;9.004;2024-02-26T09:00:56;2.40;;;0.30;;
10432;SDS011;5263;48.680;9.004;2024-02-26T09:03:21;1.07;;;0.40;;
10432;SDS011;5263;48.680;9.004;2024-02-26T09:05:47;0.40;;;0.40;;
10432;SDS011;5263;48.680;9.004;2024-02-26T09:08:13;0.37;;;0.30;;
10432;SDS011;5263;48.680;9.004;2024-02-26T09:10:39;0.80;;;0.30;;
10432;SDS011;5263;48.680;9.004;2024-02-26T09:13:05;0.57;;;0.40;;
10432;SDS011;5263;48.680;9.004;2024-02-26T09:15:30;2.10;;;0.30;;
10432;SDS011;5263;48.680;9.004;2024-02-26T09:17:56;0.60;;;0.30;;
10432;SDS011;5263;48.680;9.004;2024-02-26T09:20:22;0.40;;;0.37;;
10432;SDS011;5263;48.680;9.004;2024-02-26T09:22:48;0.23;;;0.23;;
10432;SDS011;5263;48.680;9.004;2024-02-26T09:25:15;1.03;;;0.40;;
10432;SDS011;5263;48.680;9.004;2024-02-26T09:27:42;1.37;;;0.50;;
10432;SDS011;5263;48.680;9.004;2024-02-26T09:30:11;2.87;;;0.30;;
10432;SDS011;5263;48.680;9.004;2024-02-26T09:32:37;0.40;;;0.40;;
10432;SDS011;5263;48.680;9.004;2024-02-26T09:35:03;1.00;;;0.50;;
10432;SDS011;5263;48.680;9.004;2024-02-26T09:37:30;2.93;;;0.40;;
10432;SDS011;5263;48.680;9.004;2024-02-26T09:39:55;0.83;;;0.43;;
10432;SDS011;5263;48.680;9.004;2024-02-26T09:42:21;0.50;;;0.50;;
10432;SDS011;5263;48.680;9.004;2024-02-26T09:44:51;0.27;;;0.27;;
10432;SDS011;5263;48.680;9.004;2024-02-26T09:47:23;0.40;;;0.30;;
10432;SDS011;5263;48.680;9.004;2024-02-26T09:49:52;0.40;;;0.40;;
10432;SDS011;5263;48.680;9.004;2024-02-26T09:52:19;2.63;;;0.80;;
10432;SDS011;5263;48.680;9.004;2024-02-26T09:54:49;1.50;;;0.33;;
10432;SDS011;5263;48.680;9.004;2024-02-26T09:57:15;1.33;;;0.50;;
10432;SDS011;5263;48.680;9.004;2024-02-26T09:59:42;0.60;;;0.47;;
10432;SDS011;5263;48.680;9.004;2024-02-26T10:02:10;0.40;;;0.40;;
10432;SDS011;5263;48.680;9.004;2024-02-26T10:04:40;0.70;;;0.53;;
10432;SDS011;5263;48.680;9.004;2024-02-26T10:07:09;0.30;;;0.30;;
10432;SDS011;5263;48.680;9.004;2024-02-26T10:09:36;0.30;;;0.30;;
10432;SDS011;5263;48.680;9.004;2024-02-26T10:12:02;0.63;;;0.30;;
10432;SDS011;5263;48.680;9.004;2024-02-26T10:14:29;0.50;;;0.40;;
10432;SDS011;5263;48.680;9.004;2024-02-26T10:16:55;1.93;;;0.40;;
10432;SDS011;5263;48.680;9.004;2024-02-26T10:19:24;0.30;;;0.20;;
10432;SDS011;5263;48.680;9.004;2024-02-26T10:21:53;3.10;;;0.30;;
10432;SDS011;5263;48.680;9.004;2024-02-26T10:24:23;0.40;;;0.30;;
10432;SDS011;5263;48.680;9.004;2024-02-26T10:26:50;1.03;;;0.30;;
10432;SDS011;5263;48.680;9.004;2024-02-26T10:29:17;0.20;;;0.20;;
10432;SDS011;5263;48.680;9.004;2024-02-26T10:31:43;0.20;;;0.20;;
10432;SDS011;5263;48.680;9.004;2024-02-26T10:34:10;0.20;;;0.20;;
10432;SDS011;5263;48.680;9.004;2024-02-26T10:36:36;2.83;;;0.30;;
10432;SDS011;5263;48.680;9.004;2024-02-26T10:39:04;0.10;;;0.10;;
10432;SDS011;5263;48.680;9.004;2024-02-26T10:41:30;0.10;;;0.10;;
10432;SDS011;5263;48.680;9.004;2024-02-26T10:43:57;0.10;;;0.10;;
10432;SDS011;5263;48.680;9.004;2024-02-26T10:46:23;0.20;;;0.20;;
10432;SDS011;5263;48.680;9.004;2024-02-26T10:48:50;0.40;;;0.30;;
10432;SDS011;5263;48.680;9.004;2024-02-26T10:51:16;0.20;;;0.20;;
10432;SDS011;5263;48.680;9.004;2024-02-26T10:53:50;0.23;;;0.23;;
10432;SDS011;5263;48.680;9.004;2024-02-26T10:56:19;0.20;;;0.20;;
10432;SDS011;5263;48.680;9.004;2024-02-26T10:58:47;0.40;;;0.20;;
10432;SDS011;5263;48.680;9.004;2024-02-26T11:01:13;0.20;;;0.20;;
10432;SDS011;5263;48.680;9.004;2024-02-26T11:03:39;0.20;;;0.20;;
10432;SDS011;5263;48.680;9.004;2024-02-26T11:06:05;1.90;;;0.30;;
10432;SDS011;5263;48.680;9.004;2024-02-26T11:08:31;0.60;;;0.27;;
10432;SDS011;5263;48.680;9.004;2024-02-26T11:10:57;0.20;;;0.20;;
10432;SDS011;5263;48.680;9.004;2024-02-26T11:13:25;1.13;;;0.27;;
10432;SDS011;5263;48.680;9.004;2024-02-26T11:15:54;2.10;;;0.40;;
10432;SDS011;5263;48.680;9.004;2024-02-26T11:18:22;3.03;;;0.50;;
10432;SDS011;5263;48.680;9.004;2024-02-26T11:20:48;0.50;;;0.40;;
10432;SDS011;5263;48.680;9.004;2024-02-26T11:23:16;3.10;;;0.43;;
10432;SDS011;5263;48.680;9.004;2024-02-26T11:25:41;0.57;;;0.40;;
10432;SDS011;5263;48.680;9.004;2024-02-26T11:28:12;2.70;;;0.50;;
10432;SDS011;5263;48.680;9.004;2024-02-26T11:30:41;0.40;;;0.40;;
10432;SDS011;5263;48.680;9.004;2024-02-26T11:33:10;0.67;;;0.27;;
10432;SDS011;5263;48.680;9.004;2024-02-26T11:35:37;0.40;;;0.40;;
10432;SDS011;5263;48.680;9.004;2024-02-26T11:38:03;0.53;;;0.40;;
10432;SDS011;5263;48.680;9.004;2024-02-26T11:40:31;0.87;;;0.40;;
10432;SDS011;5263;48.680;9.004;2024-02-26T11:42:57;1.60;;;0.40;;
10432;SDS011;5263;48.680;9.004;2024-02-26T11:48:04;0.30;;;0.30;;
10432;SDS011;5263;48.680;9.004;2024-02-26T11:50:51;0.57;;;0.27;;
10432;SDS011;5263;48.680;9.004;2024-02-26T11:58:58;0.87;;;0.30;;
10432;SDS011;5263;48.680;9.004;2024-02-26T12:04:02;0.47;;;0.30;;
10432;SDS011;5263;48.680;9.004;2024-02-26T12:06:51;3.10;;;0.20;;
10432;SDS011;5263;48.680;9.004;2024-02-26T12:09:30;0.30;;;0.30;;
10432;SDS011;5263;48.680;9.004;2024-02-26T12:12:09;0.50;;;0.20;;
10432;SDS011;5263;48.680;9.004;2024-02-26T12:14:38;0.30;;;0.30;;
10432;SDS011;5263;48.680;9.004;2024-02-26T12:17:05;2.67;;;0.40;;
10432;SDS011;5263;48.680;9.004;2024-02-26T12:19:34;0.40;;;0.30;;
10432;SDS011;5263;48.680;9.004;2024-02-26T12:22:01;0.20;;;0.20;;
10432;SDS011;5263;48.680;9.004;2024-02-26T12:24:27;0.20;;;0.20;;
10432;SDS011;5263;48.680;9.004;2024-02-26T12:26:52;0.20;;;0.20;;
10432;SDS011;5263;48.680;9.004;2024-02-26T12:29:18;0.50;;;0.30;;
10432;SDS011;5263;48.680;9.004;2024-02-26T12:31:43;0.20;;;0.20;;
10432;SDS011;5263;48.680;9.004;2024-02-26T12:34:09;2.10;;;0.30;;
10432;SDS011;5263;48.680;9.004;2024-02-26T12:36:35;0.40;;;0.27;;
10432;SDS011;5263;48.680;9.004;2024-02-26T12:39:02;0.30;;;0.30;;
10432;SDS011;5263;48.680;9.004;2024-02-26T12:41:28;5.73;;;0.33;;
10432;SDS011;5263;48.680;9.004;2024-02-26T12:43:55;0.73;;;0.10;;
10432;SDS011;5263;48.680;9.004;2024-02-26T12:46:21;2.77;;;0.67;;
10432;SDS011;5263;48.680;9.004;2024-02-26T12:48:47;0.50;;;0.20;;
10432;SDS011;5263;48.680;9.004;2024-02-26T12:51:12;2.40;;;0.20;;
10432;SDS011;5263;48.680;9.004;2024-02-26T12:53:40;2.47;;;0.30;;
10432;SDS011;5263;48.680;9.004;2024-02-26T12:56:07;0.10;;;0.10;;
10432;SDS011;5263;48.680;9.004;2024-02-26T12:58:34;0.23;;;0.20;;
10432;SDS011;5263;48.680;9.004;2024-02-26T13:01:00;0.10;;;0.10;;
10432;SDS011;5263;48.680;9.004;2024-02-26T13:03:26;0.00;;;0.00;;
10432;SDS011;5263;48.680;9.004;2024-02-26T13:05:52;0.33;;;0.10;;
10432;SDS011;5263;48.680;9.004;2024-02-26T13:08:21;0.97;;;0.10;;
10432;SDS011;5263;48.680;9.004;2024-02-26T13:10:47;0.20;;;0.10;;
10432;SDS011;5263;48.680;9.004;2024-02-26T13:13:15;0.10;;;0.10;;
10432;SDS011;5263;48.680;9.004;2024-02-26T13:15:42;4.50;;;0.73;;
10432;SDS011;5263;48.680;9.004;2024-02-26T13:18:12;0.10;;;0.10;;
10432;SDS011;5263;48.680;9.004;2024-02-26T13:20:39;0.10;;;0.10;;
10432;SDS011;5263;48.680;9.004;2024-02-26T13:23:06;0.43;;;0.10;;
10432;SDS011;5263;48.680;9.004;2024-02-26T13:25:35;0.10;;;0.10;;
10432;SDS011;5263;48.680;9.004;2024-02-26T13:28:07;2.10;;;0.30;;
10432;SDS011;5263;48.680;9.004;2024-02-26T13:30:34;0.20;;;0.20;;
10432;SDS011;5263;48.680;9.004;2024-02-26T13:33:12;0.10;;;0.10;;
10432;SDS011;5263;48.680;9.004;2024-02-26T13:35:38;0.40;;;0.20;;
10432;SDS011;5263;48.680;9.004;2024-02-26T13:38:04;0.10;;;0.03;;
10432;SDS011;5263;48.680;9.004;2024-02-26T13:40:31;0.10;;;0.10;;
10432;SDS011;5263;48.680;9.004;2024-02-26T13:42:57;1.20;;;0.10;;
10432;SDS011;5263;48.680;9.004;2024-02-26T13:45:23;0.83;;;0.10;;
10432;SDS011;5263;48.680;9.004;2024-02-26T13:47:48;0.07;;;0.07;;
10432;SDS011;5263;48.680;9.004;2024-02-26T13:50:14;0.10;;;0.10;;
10432;SDS011;5263;48.680;9.004;2024-02-26T13:52:39;0.10;;;0.10;;
10432;SDS011;5263;48.680;9.004;2024-02-26T13:55:05;0.20;;;0.10;;
10432;SDS011;5263;48.680;9.004;2024-02-26T13:57:32;0.13;;;0.10;;
10432;SDS011;5263;48.680;9.004;2024-02-26T13:59:58;0.20;;;0.13;;
10432;SDS011;5263;48.680;9.004;2024-02-26T14:02:23;0.13;;;0.00;;
10432;SDS011;5263;48.680;9.004;2024-02-26T14:04:49;0.10;;;0.10;;
10432;SDS011;5263;48.680;9.004;2024-02-26T14:07:14;0.33;;;0.10;;
10432;SDS011;5263;48.680;9.004;2024-02-26T14:09:42;0.20;;;0.10;;
10432;SDS011;5263;48.680;9.004;2024-02-26T14:12:08;0.10;;;0.00;;
10432;SDS011;5263;48.680;9.004;2024-02-26T14:14:33;0.10;;;0.00;;
10432;SDS011;5263;48.680;9.004;2024-02-26T14:17:03;0.10;;;0.10;;
10432;SDS011;5263;48.680;9.004;2024-02-26T14:19:29;0.10;;;0.10;;
10432;SDS011;5263;48.680;9.004;2024-02-26T14:21:54;0.00;;;0.00;;
10432;SDS011;5263;48.680;9.004;2024-02-26T14:24:20;0.10;;;0.10;;
10432;SDS011;5263;48.680;9.004;2024-02-26T14:26:45;0.00;;;0.00;;
10432;SDS011;5263;48.680;9.004;2024-02-26T14:29:11;0.10;;;0.10;;
10432;SDS011;5263;48.680;9.004;2024-02-26T14:31:36;0.10;;;0.10;;
10432;SDS011;5263;48.680;9.004;2024-02-26T14:34:02;0.07;;;0.07;;
10432;SDS011;5263;48.680;9.004;2024-02-26T14:36:28;0.20;;;0.20;;
10432;SDS011;5263;48.680;9.004;2024-02-26T14:38:54;0.30;;;0.10;;
10432;SDS011;5263;48.680;9.004;2024-02-26T14:41:19;0.10;;;0.10;;
10432;SDS011;5263;48.680;9.004;2024-02-26T14:43:45;1.20;;;0.10;;
10432;SDS011;5263;48.680;9.004;2024-02-26T14:46:11;2.17;;;0.37;;
10432;SDS011;5263;48.680;9.004;2024-02-26T14:48:36;0.20;;;0.10;;
10432;SDS011;5263;48.680;9.004;2024-02-26T14:51:02;0.20;;;0.20;;
10432;SDS011;5263;48.680;9.004;2024-02-26T14:53:31;2.57;;;0.27;;
10432;SDS011;5263;48.680;9.004;2024-02-26T14:55:57;4.10;;;1.00;;
10432;SDS011;5263;48.680;9.004;2024-02-26T14:58:22;1.37;;;0.20;;
10432;SDS011;5263;48.680;9.004;2024-02-26T15:00:48;0.30;;;0.20;;
10432;SDS011;5263;48.680;9.004;2024-02-26T15:03:14;0.40;;;0.40;;
10432;SDS011;5263;48.680;9.004;2024-02-26T15:05:40;1.87;;;0.20;;